createdAt,value
2023-03-06T00:01:17.028Z,2.13
2023-03-06T00:06:18.699Z,2.14
2023-03-06T00:11:20.634Z,2.18
2023-03-06T00:16:22.143Z,2.14
2023-03-06T00:21:23.602Z,2.11
2023-03-06T00:26:25.025Z,2.12
2023-03-06T00:31:26.480Z,2.13
2023-03-06T00:36:28.009Z,2.13
2023-03-06T00:41:29.655Z,2.11
2023-03-06T00:46:32.592Z,2.09
2023-03-06T00:51:34.209Z,2.02
2023-03-06T00:56:36.052Z,2.02
2023-03-06T01:01:37.547Z,2.02
2023-03-06T01:06:39.169Z,1.99
2023-03-06T01:11:41.042Z,2.00
2023-03-06T01:16:42.523Z,1.93
2023-03-06T01:21:44.207Z,1.93
2023-03-06T01:26:45.684Z,1.88
2023-03-06T01:31:47.510Z,1.85
2023-03-06T01:36:49.070Z,1.85
2023-03-06T01:41:50.526Z,1.85
2023-03-06T01:46:52.018Z,1.83
2023-03-06T01:52:03.552Z,1.77
2023-03-06T01:57:37.732Z,1.74
2023-03-06T02:02:42.553Z,1.70
2023-03-06T02:07:45.939Z,1.72
2023-03-06T02:12:50.226Z,1.67
2023-03-06T02:17:52.671Z,1.64
2023-03-06T02:23:06.895Z,1.64
2023-03-06T02:28:12.186Z,1.63
2023-03-06T02:33:20.553Z,1.60
2023-03-06T02:38:27.062Z,1.53
2023-03-06T02:43:33.131Z,1.53
2023-03-06T02:48:34.803Z,1.48
2023-03-06T02:53:36.398Z,1.45
2023-03-06T02:58:37.978Z,1.41
2023-03-06T03:03:39.615Z,1.43
2023-03-06T03:08:41.247Z,1.40
2023-03-06T03:13:44.263Z,1.38
2023-03-06T03:18:54.005Z,1.40
2023-03-06T03:23:57.544Z,1.34
2023-03-06T03:29:05.007Z,1.34
2023-03-06T03:34:06.614Z,1.34
2023-03-06T03:39:12.114Z,1.34
2023-03-06T03:44:15.203Z,1.35
2023-03-06T03:49:17.417Z,1.37
2023-03-06T03:54:19.302Z,1.30
2023-03-06T03:59:23.302Z,1.30
2023-03-06T04:04:48.043Z,1.30
2023-03-06T04:09:49.735Z,1.25
2023-03-06T04:14:52.494Z,1.23
2023-03-06T04:19:54.338Z,1.24
2023-03-06T04:24:56.596Z,1.24
2023-03-06T04:29:58.240Z,1.22
2023-03-06T04:34:59.973Z,1.22
2023-03-06T04:40:07.115Z,1.24
2023-03-06T04:45:08.788Z,1.25
2023-03-06T04:50:11.095Z,1.27
2023-03-06T04:55:14.041Z,1.24
2023-03-06T05:00:19.224Z,1.22
2023-03-06T05:05:20.660Z,1.25
2023-03-06T05:10:22.726Z,1.20
2023-03-06T05:15:24.148Z,1.24
2023-03-06T05:20:25.975Z,1.20
2023-03-06T05:25:27.415Z,1.20
2023-03-06T05:30:28.856Z,1.15
2023-03-06T05:35:30.367Z,1.17
2023-03-06T05:40:31.844Z,1.13
2023-03-06T05:45:33.376Z,1.10
2023-03-06T05:50:34.845Z,1.14
2023-03-06T05:55:36.293Z,1.19
2023-03-06T06:00:37.729Z,1.17
2023-03-06T06:05:39.773Z,1.19
2023-03-06T06:10:41.377Z,1.18
2023-03-06T06:15:42.812Z,1.23
2023-03-06T06:20:44.275Z,1.22
2023-03-06T06:25:45.724Z,1.20
2023-03-06T06:30:47.192Z,1.23
2023-03-06T06:35:48.676Z,1.33
2023-03-06T06:41:26.752Z,1.37
2023-03-06T06:46:47.094Z,1.40
2023-03-06T06:51:33.833Z,1.46
2023-03-06T06:56:35.322Z,1.49
2023-03-06T07:01:36.825Z,1.58
2023-03-06T07:06:38.286Z,1.62
2023-03-06T07:11:40.379Z,1.70
2023-03-06T07:16:41.806Z,1.76
2023-03-06T07:21:43.242Z,1.88
2023-03-06T07:26:48.420Z,1.95
2023-03-06T07:31:49.884Z,1.92
2023-03-06T07:36:51.331Z,2.00
2023-03-06T07:41:53.472Z,2.16
2023-03-06T07:46:55.021Z,2.38
2023-03-06T07:51:56.476Z,2.47
2023-03-06T07:56:58.147Z,2.49
2023-03-06T08:02:04.401Z,2.69
2023-03-06T08:07:16.740Z,2.73
2023-03-06T08:12:18.196Z,2.69
2023-03-06T08:18:06.082Z,2.73
2023-03-06T08:23:46.629Z,2.70
2023-03-06T08:28:48.431Z,2.77
2023-03-06T08:33:49.903Z,2.84
2023-03-06T08:38:51.599Z,2.94
2023-03-06T08:43:53.195Z,3.01
2023-03-06T08:48:54.736Z,2.98
2023-03-06T08:55:02.965Z,3.07
2023-03-06T09:00:36.929Z,3.03
2023-03-06T09:05:40.449Z,3.02
2023-03-06T09:10:46.981Z,3.20
2023-03-06T09:15:48.559Z,3.38
2023-03-06T09:20:50.015Z,3.41
2023-03-06T09:25:55.675Z,3.47
2023-03-06T09:30:57.381Z,3.86
2023-03-06T09:35:59.039Z,4.09
2023-03-06T09:41:06.400Z,4.16
2023-03-06T09:47:04.850Z,4.27
2023-03-06T09:52:36.256Z,4.17
2023-03-06T09:58:31.521Z,4.20
2023-03-06T10:04:14.798Z,4.07
2023-03-06T10:09:53.375Z,4.03
2023-03-06T10:16:19.582Z,3.95
2023-03-06T10:21:55.882Z,4.16
2023-03-06T10:27:32.126Z,4.31
2023-03-06T10:33:16.684Z,4.25
2023-03-06T10:38:37.392Z,4.15
2023-03-06T10:55:29.137Z,3.65
2023-03-06T11:41:50.761Z,4.22
2023-03-06T12:19:16.912Z,4.85
2023-03-06T12:24:43.158Z,4.85
2023-03-06T12:30:09.594Z,5.00
2023-03-06T12:35:29.700Z,4.97
2023-03-06T12:41:19.401Z,5.03
2023-03-06T12:46:23.258Z,4.91
2023-03-06T12:51:25.024Z,4.88
2023-03-06T12:56:28.174Z,4.70
2023-03-06T13:01:41.053Z,4.90
2023-03-06T13:06:59.406Z,4.90
2023-03-06T13:12:15.761Z,4.98
2023-03-06T13:17:22.980Z,4.95
2023-03-06T13:22:27.860Z,5.00
2023-03-06T13:27:52.152Z,5.17
2023-03-06T13:32:54.658Z,5.41
2023-03-06T13:37:57.317Z,5.42
2023-03-06T13:43:07.507Z,5.42
2023-03-06T13:48:47.333Z,5.38
2023-03-06T13:54:11.312Z,5.56
2023-03-06T13:59:44.786Z,5.31
2023-03-06T14:04:58.573Z,5.39
2023-03-06T14:10:08.558Z,5.32
2023-03-06T14:15:28.218Z,5.28
2023-03-06T14:20:42.197Z,5.42
2023-03-06T14:25:45.850Z,5.28
2023-03-06T14:30:52.069Z,5.29
2023-03-06T14:35:56.672Z,5.18
2023-03-06T14:40:58.434Z,5.21
2023-03-06T14:46:02.500Z,5.09
2023-03-06T14:51:04.241Z,5.27
2023-03-06T14:56:07.572Z,5.40
2023-03-06T15:01:10.784Z,5.22
2023-03-06T15:06:27.290Z,5.37
2023-03-06T15:11:52.196Z,5.15
2023-03-06T15:16:53.685Z,5.17
2023-03-06T15:21:55.162Z,5.25
2023-03-06T15:27:01.503Z,3.86
2023-03-06T15:32:29.448Z,3.44
2023-03-06T15:37:39.182Z,3.59
2023-03-06T15:42:42.465Z,3.32
2023-03-06T15:47:44.759Z,4.01
2023-03-06T15:52:47.000Z,3.90
2023-03-06T15:58:00.673Z,3.45
2023-03-06T16:03:03.306Z,3.40
2023-03-06T16:08:05.924Z,3.81
2023-03-06T16:13:12.805Z,3.60
2023-03-06T16:18:14.350Z,3.69
2023-03-06T16:23:16.392Z,3.67
2023-03-06T16:28:17.754Z,2.94
2023-03-06T16:33:19.228Z,2.75
2023-03-06T16:38:20.733Z,2.65
2023-03-06T16:43:22.167Z,2.83
2023-03-06T16:48:23.596Z,2.69
2023-03-06T16:53:25.029Z,2.75
2023-03-06T16:58:26.471Z,2.70
2023-03-06T17:03:27.924Z,2.85
2023-03-06T17:08:29.805Z,3.13
2023-03-06T17:13:31.226Z,2.96
2023-03-06T17:18:32.990Z,2.95
2023-03-06T17:23:34.448Z,2.79
2023-03-06T17:28:37.345Z,2.73
2023-03-06T17:33:38.811Z,2.88
2023-03-06T17:38:41.077Z,2.83
2023-03-06T17:43:42.540Z,2.67
2023-03-06T17:48:44.430Z,2.72
2023-03-06T17:53:45.901Z,2.82
2023-03-06T18:05:45.225Z,2.95
2023-03-06T18:10:47.625Z,2.96
2023-03-06T18:15:49.064Z,2.93
2023-03-06T18:20:50.586Z,2.79
2023-03-06T18:25:52.618Z,2.92
2023-03-06T18:30:54.139Z,2.95
2023-03-06T18:35:55.495Z,2.79
2023-03-06T18:40:56.970Z,2.74
2023-03-06T18:45:58.432Z,2.70
2023-03-06T18:51:08.092Z,2.66
2023-03-06T18:56:16.744Z,2.72
2023-03-06T19:01:18.596Z,2.57
2023-03-06T19:06:20.260Z,2.79
2023-03-06T19:11:21.680Z,2.74
2023-03-06T19:16:26.236Z,2.58
2023-03-06T19:21:27.976Z,2.50
2023-03-06T19:26:29.486Z,2.69
2023-03-06T19:31:30.920Z,2.53
2023-03-06T19:36:34.136Z,2.46
2023-03-06T19:41:38.019Z,2.52
2023-03-06T19:46:40.597Z,2.47
2023-03-06T19:51:42.295Z,2.47
2023-03-06T19:56:43.748Z,2.42
2023-03-06T20:01:45.234Z,2.13
2023-03-06T20:06:49.829Z,1.92
2023-03-06T20:12:53.807Z,1.96
2023-03-06T20:17:56.806Z,2.19
2023-03-06T20:23:02.554Z,2.04
2023-03-06T20:28:04.547Z,2.02
2023-03-06T20:33:06.005Z,1.92
2023-03-06T20:38:07.436Z,1.98
2023-03-06T20:43:08.862Z,1.89
2023-03-06T20:48:10.320Z,1.93
2023-03-06T20:53:11.787Z,1.93
2023-03-06T20:58:13.212Z,1.90
2023-03-06T21:03:14.901Z,1.93
2023-03-06T21:08:17.079Z,1.93
2023-03-06T21:13:19.116Z,1.86
2023-03-06T21:18:20.694Z,1.83
2023-03-06T21:23:22.148Z,1.83
2023-03-06T21:28:23.608Z,1.83
2023-03-06T21:33:28.606Z,1.68
2023-03-06T21:38:30.322Z,1.65
2023-03-06T21:43:31.758Z,1.56
2023-03-06T21:48:33.771Z,1.63
2023-03-06T21:53:35.870Z,1.52
2023-03-06T21:58:37.652Z,1.43
2023-03-06T22:03:39.197Z,1.39
2023-03-06T22:08:41.703Z,1.39
2023-03-06T22:13:43.740Z,1.37
2023-03-06T22:18:47.019Z,1.36
2023-03-06T22:23:52.763Z,1.35
2023-03-06T22:28:54.497Z,1.30
2023-03-06T22:33:58.407Z,1.31
2023-03-06T22:39:01.832Z,1.35
2023-03-06T22:44:03.520Z,1.35
2023-03-06T22:49:05.067Z,1.37
2023-03-06T22:54:07.759Z,1.43
2023-03-06T22:59:09.202Z,1.45
2023-03-06T23:04:11.295Z,1.48
2023-03-06T23:09:16.003Z,1.47
2023-03-06T23:14:35.916Z,1.45
2023-03-06T23:19:55.720Z,1.48
2023-03-06T23:25:15.744Z,1.46
2023-03-06T23:30:17.358Z,1.38
2023-03-06T23:35:19.040Z,1.41
2023-03-06T23:40:20.525Z,1.37
2023-03-06T23:45:22.100Z,1.41
2023-03-06T23:50:24.556Z,1.40
2023-03-06T23:55:25.994Z,1.46
